Time;durP1;ratioP1;P1;durP2;ratioP2;P2;SDS_P1;SDS_P2;PMS_P1;PMS_P2;Temp;Humidity;BMP_temperature;BMP_pressure;BME280_temperature;BME280_humidity;BME280_pressure;Samples;Min_cycle;Max_cycle;Signal;HPM_P1;HPM_P2
2021/05/28 00:00:37;;;;;;;1.90;1.60;;;12.70;99.90;;;12.41;93.08;101623.97;4123029;28;20126;-67
2021/05/28 00:02:38;;;;;;;2.90;1.75;;;12.60;99.90;;;12.30;93.60;101622.38;4122712;28;20043;-67
2021/05/28 00:04:41;;;;;;;1.70;1.52;;;12.60;99.90;;;12.33;94.03;101629.19;4122829;28;20118;-67
2021/05/28 00:06:42;;;;;;;2.72;1.88;;;12.60;99.90;;;12.32;94.11;101624.84;4122606;28;20525;-67
2021/05/28 00:08:43;;;;;;;3.65;1.30;;;12.60;99.90;;;12.30;94.03;101603.00;4122569;28;20035;-67
2021/05/28 00:10:44;;;;;;;3.60;1.65;;;12.60;99.90;;;12.40;93.37;101617.00;4122620;28;20034;-67
2021/05/28 00:12:45;;;;;;;1.55;1.42;;;12.50;99.90;;;12.33;93.63;101616.78;4121072;28;20038;-67
2021/05/28 00:14:46;;;;;;;4.75;1.73;;;12.50;99.90;;;12.30;93.75;101614.44;4122430;28;20026;-67
2021/05/28 00:16:47;;;;;;;2.60;2.15;;;12.50;99.90;;;12.24;94.38;101611.53;4122518;28;20109;-67
2021/05/28 00:18:47;;;;;;;3.80;2.05;;;12.40;99.90;;;12.14;94.58;101608.91;4121377;28;20027;-67
2021/05/28 00:20:49;;;;;;;2.75;1.40;;;12.40;99.90;;;12.10;94.97;101611.00;4122506;28;20027;-67
2021/05/28 00:22:50;;;;;;;2.72;1.50;;;12.40;99.90;;;11.98;95.30;101585.72;4122420;28;20031;-67
2021/05/28 00:24:51;;;;;;;1.63;1.38;;;12.40;99.90;;;12.12;95.36;101610.88;4122547;28;20038;-67
2021/05/28 00:26:52;;;;;;;2.60;1.65;;;12.30;99.90;;;12.17;95.08;101614.75;4122336;28;20106;-67
2021/05/28 00:28:53;;;;;;;1.55;1.40;;;12.40;99.90;;;12.09;95.51;101604.06;4122154;28;20034;-67
2021/05/28 00:30:54;;;;;;;3.38;1.50;;;12.40;99.90;;;12.15;94.98;101607.94;4122238;28;20035;-67
2021/05/28 00:32:54;;;;;;;2.92;1.67;;;12.40;99.90;;;12.15;95.17;101613.22;4122219;28;20118;-67
2021/05/28 00:34:56;;;;;;;2.00;1.58;;;12.40;99.90;;;12.11;95.23;101607.41;4122256;28;20077;-67
2021/05/28 00:36:57;;;;;;;5.18;1.67;;;12.30;99.90;;;12.19;94.47;101610.13;4122362;28;20605;-67
2021/05/28 00:38:58;;;;;;;1.92;1.50;;;12.30;99.90;;;12.22;93.77;101614.31;4122104;28;20027;-67
2021/05/28 00:40:59;;;;;;;2.30;1.60;;;12.40;99.90;;;12.15;93.38;101613.22;4121951;28;20027;-67
2021/05/28 00:43:00;;;;;;;3.38;1.70;;;12.30;99.90;;;11.99;93.40;101605.06;4121935;28;20478;-67
2021/05/28 00:45:01;;;;;;;2.42;1.52;;;12.30;99.90;;;12.08;93.30;101618.25;4122067;28;20027;-67
2021/05/28 00:47:02;;;;;;;1.58;1.27;;;12.20;99.90;;;12.07;93.55;101619.22;4136879;28;20065;-67
2021/05/28 00:49:03;;;;;;;4.07;1.50;;;12.20;99.90;;;12.05;93.66;101615.91;4121914;28;20031;-67
2021/05/28 00:51:06;;;;;;;3.53;1.90;;;12.20;99.90;;;11.99;93.87;101613.84;4122068;28;20035;-67
2021/05/28 00:53:07;;;;;;;2.75;1.50;;;12.20;99.90;;;11.95;93.69;101608.97;4120867;28;20097;-67
2021/05/28 00:55:08;;;;;;;3.10;1.42;;;12.20;99.90;;;11.90;94.37;101609.41;4120721;28;20031;-67
2021/05/28 00:57:10;;;;;;;3.15;1.73;;;12.20;99.90;;;11.95;94.21;101612.44;4121641;28;20483;-67
2021/05/28 00:59:13;;;;;;;3.03;1.27;;;12.20;99.90;;;11.99;94.17;101608.53;4120735;28;20026;-67
2021/05/28 01:01:14;;;;;;;2.30;1.60;;;12.20;99.90;;;12.02;94.80;101618.84;4121797;28;20034;-67
2021/05/28 01:03:15;;;;;;;3.25;1.40;;;12.20;99.90;;;12.04;94.68;101616.03;4121650;28;20034;-67
2021/05/28 01:05:16;;;;;;;1.92;1.52;;;12.20;99.90;;;11.98;94.44;101614.81;4121179;28;20078;-67
2021/05/28 01:07:18;;;;;;;2.17;1.95;;;12.20;99.90;;;11.92;94.18;101612.72;4121841;28;20169;-67
2021/05/28 01:09:19;;;;;;;3.30;1.58;;;12.20;99.90;;;11.90;94.86;101617.34;4121550;28;20027;-67
2021/05/28 01:11:21;;;;;;;3.92;1.20;;;12.20;99.90;;;11.87;95.15;101628.19;4121711;28;20380;-67
2021/05/28 01:13:22;;;;;;;3.65;1.55;;;12.10;99.90;;;11.92;94.63;101623.31;4121208;28;20038;-67
2021/05/28 01:15:23;;;;;;;1.83;1.30;;;12.10;99.90;;;11.87;93.71;101633.50;4121706;28;20027;-67
2021/05/28 01:17:24;;;;;;;3.15;2.10;;;12.10;99.90;;;11.79;93.36;101622.81;4121744;28;20026;-67
2021/05/28 01:19:26;;;;;;;2.65;1.58;;;12.00;99.90;;;11.90;92.79;101621.78;4121634;28;20465;-67
2021/05/28 01:21:28;;;;;;;3.63;1.88;;;12.10;99.90;;;11.88;93.11;101624.59;4121352;28;20030;-67
2021/05/28 01:23:29;;;;;;;3.50;1.73;;;12.00;99.90;;;11.79;94.10;101620.16;4121647;28;20113;-67
2021/05/28 01:25:31;;;;;;;2.10;1.55;;;12.00;99.90;;;11.73;94.94;101626.00;4121643;28;20038;-67
2021/05/28 01:27:32;;;;;;;3.22;1.88;;;12.00;99.90;;;11.73;94.95;101623.38;4121342;28;20038;-67
2021/05/28 01:29:33;;;;;;;6.22;2.40;;;12.00;99.90;;;11.88;95.08;101629.03;4121462;28;20139;-67
2021/05/28 01:31:35;;;;;;;3.92;1.70;;;12.10;99.90;;;11.78;95.86;101629.06;4121496;28;20031;-67
2021/05/28 01:33:44;;;;;;;3.15;2.13;;;12.00;99.90;;;11.85;95.72;101629.31;4121482;28;20105;-67
2021/05/28 01:35:45;;;;;;;2.40;2.08;;;12.00;99.90;;;11.91;95.59;101632.25;4121301;28;20031;-67
2021/05/28 01:37:46;;;;;;;2.55;2.20;;;12.10;99.90;;;11.89;95.49;101628.03;4121392;28;20509;-67
2021/05/28 01:39:50;;;;;;;3.70;1.98;;;12.10;99.90;;;11.82;96.41;101627.81;4121337;28;20027;-67
2021/05/28 01:41:51;;;;;;;4.93;2.60;;;12.10;99.90;;;11.76;96.68;101625.72;4121404;28;20029;-67
2021/05/28 01:43:52;;;;;;;1.95;1.75;;;12.10;99.90;;;11.86;96.49;101629.16;4121050;28;20031;-67
2021/05/28 01:45:53;;;;;;;2.28;2.00;;;12.10;99.90;;;11.84;96.60;101639.06;4121106;28;20494;-67
2021/05/28 01:47:54;;;;;;;4.00;2.00;;;12.10;99.90;;;11.78;97.20;101634.34;4121262;28;20031;-67
2021/05/28 01:49:55;;;;;;;2.80;1.98;;;12.10;99.90;;;11.72;96.70;101629.63;4121122;28;20034;-67
2021/05/28 01:51:56;;;;;;;4.55;2.45;;;12.10;99.90;;;11.92;95.12;101633.03;4120836;28;20040;-67
2021/05/28 01:53:57;;;;;;;3.13;2.67;;;12.10;99.90;;;11.83;95.10;101624.16;4120845;28;20037;-67
2021/05/28 01:55:58;;;;;;;3.00;2.40;;;12.10;99.90;;;11.87;95.50;101624.72;4119844;28;20031;-67
2021/05/28 01:57:59;;;;;;;3.75;1.95;;;12.10;99.90;;;11.85;95.77;101627.53;4120711;28;20557;-67
2021/05/28 02:00:00;;;;;;;3.05;1.85;;;12.10;99.90;;;11.79;96.22;101625.44;4120870;28;20038;-67
2021/05/28 02:02:01;;;;;;;5.45;2.70;;;12.10;99.90;;;11.83;95.55;101626.81;4120680;28;20046;-67
2021/05/28 02:04:03;;;;;;;6.10;2.80;;;12.10;99.90;;;11.79;95.90;101625.44;4120690;28;20387;-67
2021/05/28 02:06:04;;;;;;;4.32;2.70;;;12.10;99.90;;;11.82;95.44;101626.97;4120945;28;20026;-67
2021/05/28 02:08:06;;;;;;;3.90;2.78;;;12.00;99.90;;;11.72;95.62;101626.13;4120724;28;20078;-67
2021/05/28 02:10:07;;;;;;;4.10;2.53;;;12.00;99.90;;;11.72;96.13;101620.84;4120482;28;20042;-67
2021/05/28 02:12:09;;;;;;;3.40;2.35;;;12.10;99.90;;;11.72;96.74;101626.97;4120477;28;20029;-67
2021/05/28 02:14:10;;;;;;;2.20;1.90;;;12.00;99.90;;;11.80;96.43;101623.63;4120735;28;20026;-67
2021/05/28 02:16:11;;;;;;;3.13;2.13;;;12.00;99.90;;;11.84;95.39;101612.63;4119403;28;20023;-67
2021/05/28 02:18:12;;;;;;;4.28;2.90;;;12.10;99.90;;;11.85;95.02;101616.94;4118594;28;20019;-67
2021/05/28 02:20:13;;;;;;;2.97;2.40;;;12.00;99.90;;;11.74;94.69;101611.81;4119378;28;20073;-67
2021/05/28 02:22:14;;;;;;;4.20;2.45;;;12.10;99.90;;;11.71;95.63;101621.84;4120427;28;20026;-67
2021/05/28 02:24:17;;;;;;;5.18;3.20;;;12.00;99.90;;;11.61;96.38;101613.91;4120573;28;20039;-67
2021/05/28 02:26:18;;;;;;;5.07;2.85;;;11.90;99.90;;;11.62;96.62;101619.03;4120422;28;20022;-67
2021/05/28 02:28:18;;;;;;;6.15;2.50;;;12.00;99.90;;;11.71;96.44;101622.66;4120243;28;20038;-67
2021/05/28 02:30:20;;;;;;;3.28;1.98;;;12.00;99.90;;;11.81;95.46;101612.06;4120529;28;20078;-67
2021/05/28 02:32:21;;;;;;;3.92;2.88;;;12.00;99.90;;;11.84;94.37;101604.69;4120350;28;20125;-67
2021/05/28 02:34:22;;;;;;;4.70;3.00;;;12.10;99.90;;;11.89;94.26;101602.44;4120304;28;20062;-67
2021/05/28 02:36:22;;;;;;;3.22;2.53;;;12.10;99.90;;;11.76;95.09;101611.66;4120661;28;20035;-67
2021/05/28 02:38:23;;;;;;;7.35;2.58;;;12.10;99.90;;;11.69;96.03;101603.44;4120417;28;20030;-67
2021/05/28 02:40:25;;;;;;;5.65;3.00;;;12.10;99.90;;;11.66;96.20;101601.09;4120302;28;20027;-67
2021/05/28 02:42:26;;;;;;;3.97;2.70;;;12.00;99.90;;;11.71;96.86;101595.41;4120036;28;20046;-67
2021/05/28 02:44:27;;;;;;;4.35;2.55;;;12.10;99.90;;;11.80;96.21;101595.38;4120569;28;20035;-67
2021/05/28 02:46:30;;;;;;;5.50;2.70;;;12.10;99.90;;;11.93;94.71;101593.25;4119168;28;20037;-67
2021/05/28 02:48:31;;;;;;;6.60;2.70;;;12.20;99.90;;;11.86;95.47;101593.97;4120313;28;20125;-67
2021/05/28 02:50:33;;;;;;;4.68;2.53;;;12.20;99.90;;;11.82;96.13;101601.38;4120178;28;20145;-67
2021/05/28 02:52:33;;;;;;;5.28;2.55;;;12.20;99.90;;;11.87;96.49;101593.00;4120110;28;20089;-67
2021/05/28 02:54:34;;;;;;;4.05;2.25;;;12.20;99.90;;;11.93;96.39;101590.63;4120291;28;20414;-67
2021/05/28 02:56:35;;;;;;;5.50;3.05;;;12.30;99.90;;;11.88;96.25;101599.97;4120084;28;20027;-67
2021/05/28 02:58:37;;;;;;;3.35;2.65;;;12.20;99.90;;;11.94;95.93;101592.28;4118637;28;20098;-67
2021/05/28 03:00:39;;;;;;;4.32;2.70;;;12.20;99.90;;;11.97;95.65;101594.66;4120152;28;20031;-67
2021/05/28 03:02:39;;;;;;;5.22;3.20;;;12.30;99.90;;;11.80;96.05;101587.44;4120263;28;20034;-67
2021/05/28 03:04:40;;;;;;;3.40;2.63;;;12.30;99.90;;;11.76;96.11;101594.00;4119972;28;20055;-67
2021/05/28 03:06:42;;;;;;;3.38;2.95;;;12.20;99.90;;;11.77;96.48;101595.66;4120006;28;20066;-67
2021/05/28 03:08:43;;;;;;;5.57;3.72;;;12.20;99.90;;;11.83;96.33;101597.72;4118379;28;20030;-67
2021/05/28 03:10:44;;;;;;;4.82;2.95;;;12.20;99.90;;;11.86;95.83;101594.81;4104008;28;20403;-67
2021/05/28 03:12:45;;;;;;;4.07;3.13;;;12.20;99.90;;;11.91;95.77;101599.66;4103832;28;20487;-67
2021/05/28 03:14:47;;;;;;;3.78;2.97;;;12.20;99.90;;;12.05;94.06;101594.75;4102701;28;20038;-67
2021/05/28 03:16:48;;;;;;;4.97;3.42;;;12.30;99.90;;;12.05;94.24;101594.75;4103834;28;20098;-67
2021/05/28 03:19:00;;;;;;;6.07;3.10;;;12.20;99.90;;;11.88;94.32;101578.81;4103970;28;20027;-67
2021/05/28 03:23:22;;;;;;;3.40;3.10;;;12.20;99.90;;;11.76;95.71;101582.59;4120036;28;20565;-67
2021/05/28 03:25:23;;;;;;;3.63;3.05;;;12.10;99.90;;;11.75;95.84;101588.84;4119844;28;20023;-67
2021/05/28 03:27:24;;;;;;;5.45;3.90;;;12.10;99.90;;;11.83;94.49;101586.31;4119461;28;20035;-67
2021/05/28 03:29:25;;;;;;;6.25;3.40;;;12.10;99.90;;;11.85;93.82;101585.22;4118386;28;20054;-67
2021/05/28 03:31:26;;;;;;;5.50;3.28;;;12.10;99.90;;;11.90;93.87;101580.31;4119852;28;20410;-67
2021/05/28 03:33:27;;;;;;;4.03;2.85;;;12.10;99.90;;;11.77;94.50;101586.91;4119895;28;20069;-67
2021/05/28 03:35:28;;;;;;;4.72;3.20;;;12.10;99.90;;;11.76;93.82;101596.66;4119767;28;20478;-67
2021/05/28 03:37:29;;;;;;;3.65;2.95;;;12.10;99.90;;;11.71;94.64;101592.78;4119546;28;20058;-67
2021/05/28 03:39:30;;;;;;;4.18;2.78;;;12.00;99.90;;;11.68;95.29;101596.47;4119919;28;20041;-67
2021/05/28 03:41:30;;;;;;;3.97;2.85;;;12.00;99.90;;;11.68;95.69;101593.03;4119721;28;20027;-67
2021/05/28 03:43:32;;;;;;;3.78;2.80;;;12.00;99.90;;;11.64;95.65;101598.59;4119483;28;20046;-67
2021/05/28 03:45:32;;;;;;;4.07;3.15;;;12.00;99.90;;;11.52;95.78;101586.50;4119572;28;20034;-67
2021/05/28 03:47:34;;;;;;;3.55;2.90;;;11.90;99.90;;;11.41;96.03;101585.84;4119802;28;20465;-67
2021/05/28 03:49:35;;;;;;;4.72;2.83;;;11.90;99.90;;;11.51;95.44;101586.63;4119724;28;20041;-67
2021/05/28 03:51:36;;;;;;;4.50;3.10;;;11.80;99.90;;;11.54;95.64;101586.34;4119774;28;20045;-67
2021/05/28 03:53:37;;;;;;;3.47;2.75;;;11.80;99.90;;;11.44;95.78;101588.19;4119594;28;20093;-67
2021/05/28 03:55:38;;;;;;;3.20;2.72;;;11.80;99.90;;;11.44;96.14;101585.56;4119623;28;20027;-67
2021/05/28 03:57:39;;;;;;;4.03;3.08;;;11.80;99.90;;;11.43;96.21;101586.53;4119445;28;20101;-67
2021/05/28 03:59:40;;;;;;;7.15;2.97;;;11.80;99.90;;;11.44;95.58;101585.56;4119762;28;20066;-67
2021/05/28 04:01:41;;;;;;;4.55;2.80;;;11.80;99.90;;;11.42;95.73;101588.31;4119352;28;20114;-67
2021/05/28 04:03:42;;;;;;;4.90;3.42;;;11.70;99.90;;;11.45;96.12;101585.41;4119325;28;20054;-67
2021/05/28 04:05:43;;;;;;;4.68;3.20;;;11.70;99.90;;;11.39;96.57;101582.47;4119460;28;20023;-67
2021/05/28 04:07:44;;;;;;;3.97;2.80;;;11.70;99.90;;;11.31;96.77;101582.34;4119639;28;20037;-67
2021/05/28 04:09:45;;;;;;;3.30;2.70;;;11.70;99.90;;;11.42;96.64;101587.47;4119471;28;20138;-67
2021/05/28 04:11:46;;;;;;;3.17;2.88;;;11.70;99.90;;;11.40;96.47;101586.81;4119396;28;20082;-67
2021/05/28 04:13:47;;;;;;;3.63;3.00;;;11.70;99.90;;;11.46;95.94;101595.00;4119296;28;20110;-67
2021/05/28 04:15:48;;;;;;;6.97;3.20;;;11.70;99.90;;;11.44;96.06;101585.56;4119605;28;20035;-67
2021/05/28 04:17:49;;;;;;;4.55;3.00;;;11.70;99.90;;;11.47;96.09;101599.28;4119587;28;20015;-67
2021/05/28 04:19:50;;;;;;;3.72;2.80;;;11.70;99.90;;;11.47;96.15;101595.81;4119378;28;20114;-67
2021/05/28 04:21:50;;;;;;;8.05;2.95;;;11.70;99.90;;;11.57;95.75;101600.13;4119447;28;20034;-67
2021/05/28 04:23:51;;;;;;;2.15;1.90;;;11.80;99.90;;;11.53;95.91;101601.38;4119429;28;20066;-67
2021/05/28 04:25:52;;;;;;;2.53;2.33;;;11.80;99.90;;;11.47;95.76;101606.38;4119342;28;20039;-67
2021/05/28 04:27:53;;;;;;;3.58;2.50;;;11.80;99.90;;;11.57;94.94;101609.84;4119186;28;20035;-67
2021/05/28 04:29:54;;;;;;;4.55;2.63;;;11.80;99.90;;;11.51;95.08;101607.78;4119389;28;20027;-67
2021/05/28 04:31:55;;;;;;;3.72;2.50;;;11.90;99.90;;;11.46;95.08;101608.22;4119332;28;20035;-67
2021/05/28 04:33:56;;;;;;;3.63;2.92;;;11.80;99.90;;;11.31;95.66;101612.25;4119369;28;20109;-67
2021/05/28 04:35:57;;;;;;;16.13;3.28;;;11.80;99.90;;;11.35;95.96;101612.81;4119328;28;20023;-67
2021/05/28 04:37:58;;;;;;;3.17;2.70;;;11.80;99.90;;;11.29;96.51;101614.19;4119328;28;20371;-67
2021/05/28 04:39:59;;;;;;;3.65;2.80;;;11.80;99.90;;;11.24;96.85;101613.78;4119340;28;20046;-67
2021/05/28 04:42:00;;;;;;;4.03;2.72;;;11.70;99.90;;;11.26;96.91;101618.94;4121856;28;20019;-67
2021/05/28 04:44:01;;;;;;;5.28;2.90;;;11.70;99.90;;;11.24;97.32;101620.84;4122163;28;20059;-67
2021/05/28 04:46:02;;;;;;;4.85;2.90;;;11.70;99.90;;;11.38;96.67;101618.63;4122178;28;20027;-67
2021/05/28 04:48:04;;;;;;;3.08;2.63;;;11.70;99.90;;;11.46;96.46;101625.88;4122078;28;20050;-67
2021/05/28 04:50:05;;;;;;;8.40;3.53;;;11.80;99.90;;;11.41;96.43;101620.19;4122183;28;20027;-67
2021/05/28 04:52:06;;;;;;;5.32;3.17;;;11.80;99.90;;;11.50;96.23;101629.88;4121673;28;20090;-67
2021/05/28 04:54:07;;;;;;;3.58;2.72;;;11.80;99.90;;;11.55;95.73;101627.66;4121971;28;20022;-67
2021/05/28 04:56:08;;;;;;;6.90;3.05;;;11.90;99.90;;;11.69;94.63;101627.22;4121911;28;20026;-67
2021/05/28 04:58:09;;;;;;;4.72;2.40;;;11.90;99.90;;;11.58;95.70;101625.59;4121528;28;20030;-67
2021/05/28 05:00:11;;;;;;;6.30;2.90;;;12.00;99.90;;;11.70;95.61;101634.22;4121663;28;20027;-67
2021/05/28 05:02:12;;;;;;;5.07;2.67;;;12.00;99.90;;;11.57;96.07;101636.28;4121956;28;20502;-67
2021/05/28 05:04:13;;;;;;;4.50;2.80;;;12.00;99.90;;;11.58;96.60;101637.97;4121672;28;20054;-67
2021/05/28 05:06:13;;;;;;;4.70;2.85;;;12.00;99.90;;;11.61;97.03;101630.59;4121735;28;20027;-67
2021/05/28 05:08:14;;;;;;;6.50;3.25;;;12.00;99.90;;;11.73;96.83;101627.81;4121604;28;20035;-67
2021/05/28 05:10:15;;;;;;;4.53;3.70;;;12.10;99.90;;;11.90;95.50;101627.91;4121543;28;20517;-67
2021/05/28 05:12:16;;;;;;;6.50;3.15;;;12.30;99.90;;;12.13;94.44;101629.22;4121503;28;20046;-67
2021/05/28 05:14:17;;;;;;;3.55;2.95;;;12.50;99.90;;;12.16;94.68;101623.66;4121710;28;20027;-67
2021/05/28 05:16:18;;;;;;;5.45;3.05;;;12.60;99.90;;;12.25;94.57;101629.03;4121557;28;20097;-67
2021/05/28 05:18:20;;;;;;;3.78;3.03;;;12.70;99.90;;;12.24;94.06;101614.16;4121580;28;20018;-67
2021/05/28 05:20:21;;;;;;;4.45;2.80;;;12.80;99.90;;;12.32;94.45;101624.84;4121426;28;20031;-67
2021/05/28 05:22:22;;;;;;;4.75;3.20;;;12.90;99.90;;;12.56;92.09;101623.34;4121524;28;20033;-67
2021/05/28 05:24:23;;;;;;;5.00;2.88;;;13.00;99.90;;;12.59;92.43;101624.88;4121498;28;20037;-67
2021/05/28 05:26:24;;;;;;;3.08;2.78;;;13.10;99.90;;;12.52;92.68;101629.06;4121530;28;20027;-67
2021/05/28 05:28:25;;;;;;;4.18;3.20;;;13.10;99.90;;;12.65;92.13;101622.47;4121234;28;20106;-67
2021/05/28 05:30:26;;;;;;;4.05;2.97;;;13.10;99.90;;;12.80;91.34;101630.72;4121642;28;20027;-67
2021/05/28 05:32:27;;;;;;;4.70;3.15;;;13.20;99.90;;;12.83;91.64;101629.59;4121151;28;20046;-67
2021/05/28 05:34:28;;;;;;;3.45;2.85;;;13.30;99.90;;;12.84;91.31;101634.75;4121433;28;20018;-67
2021/05/28 05:36:29;;;;;;;3.90;3.50;;;13.30;99.90;;;12.84;89.88;101620.69;4121574;28;20038;-67
2021/05/28 05:38:30;;;;;;;3.85;2.78;;;13.40;99.90;;;12.88;90.93;101638.75;4121231;28;20027;-67
2021/05/28 05:40:31;;;;;;;3.65;2.80;;;13.50;99.90;;;12.98;90.14;101642.19;4121230;28;20030;-67
2021/05/28 05:42:36;;;;;;;4.45;3.35;;;13.50;99.90;;;12.94;89.89;101638.16;4120855;28;20035;-67
2021/05/28 05:44:36;;;;;;;6.40;2.83;;;13.50;99.90;;;12.99;90.26;101646.47;4120141;28;20038;-67
2021/05/28 05:46:39;;;;;;;4.53;2.85;;;13.50;99.90;;;13.19;88.15;101639.28;4120032;28;20114;-66
2021/05/28 05:48:41;;;;;;;4.50;2.80;;;13.60;99.90;;;13.32;87.30;101636.25;4106458;28;20035;-67
2021/05/28 05:50:42;;;;;;;3.78;2.80;;;13.70;99.90;;;13.29;87.77;101638.22;4106188;28;20511;-67
2021/05/28 05:52:43;;;;;;;4.47;2.65;;;13.70;99.90;;;13.29;87.94;101647.97;4119159;28;20034;-67
2021/05/28 05:54:44;;;;;;;3.20;2.88;;;13.70;99.90;;;13.33;87.26;101649.34;4120267;28;20494;-67
2021/05/28 05:56:45;;;;;;;4.72;2.80;;;13.80;99.90;;;13.38;87.13;101651.56;4120533;28;20042;-67
2021/05/28 05:58:46;;;;;;;5.75;2.90;;;13.80;99.90;;;13.36;86.96;101654.34;4120863;28;20031;-67
2021/05/28 06:00:47;;;;;;;4.05;2.60;;;13.80;99.90;;;13.47;86.00;101653.31;4120836;28;20430;-68
2021/05/28 06:02:48;;;;;;;3.65;2.83;;;13.90;99.90;;;13.44;86.99;101648.31;4120905;28;20054;-67
2021/05/28 06:04:49;;;;;;;2.65;2.08;;;13.90;99.90;;;13.36;88.12;101650.84;4120587;28;20518;-68
2021/05/28 06:06:49;;;;;;;4.68;2.80;;;13.90;99.90;;;13.44;87.41;101650.94;4120834;28;20026;-67
2021/05/28 06:08:51;;;;;;;4.32;2.50;;;13.90;99.90;;;13.41;87.89;101651.25;4120845;28;20030;-68
2021/05/28 06:10:52;;;;;;;3.65;2.17;;;14.00;99.90;;;13.47;87.20;101648.81;4120728;28;20023;-67
2021/05/28 06:13:04;;;;;;;3.30;2.03;;;14.00;99.90;;;13.43;88.51;101652.75;4120303;28;20077;-67
2021/05/28 06:15:06;;;;;;;3.92;2.42;;;14.00;99.90;;;13.39;88.40;101637.31;4120673;28;20085;-68
2021/05/28 06:17:07;;;;;;;3.15;2.75;;;14.00;99.90;;;13.51;85.97;101644.03;4120580;28;20035;-67
2021/05/28 06:19:08;;;;;;;3.17;2.28;;;14.00;99.90;;;13.48;87.10;101636.38;4119420;28;20057;-68
2021/05/28 06:21:09;;;;;;;4.43;2.75;;;14.10;99.90;;;13.63;84.87;101637.50;4120307;28;20173;-67
2021/05/28 06:23:10;;;;;;;4.97;2.58;;;14.10;99.90;;;13.63;85.93;101640.16;4120324;28;20027;-67
2021/05/28 06:25:15;;;;;;;6.25;2.70;;;14.10;99.90;;;13.70;85.03;101638.56;4120657;28;20035;-68
2021/05/28 06:27:16;;;;;;;3.25;2.13;;;14.20;99.90;;;13.74;85.39;101638.09;4109399;28;20038;-67
2021/05/28 06:29:17;;;;;;;3.78;2.33;;;14.20;99.90;;;13.72;85.48;101645.38;4102231;28;20027;-67
2021/05/28 06:31:18;;;;;;;5.38;3.25;;;14.30;99.90;;;13.70;85.16;101638.56;4117529;28;20101;-67
2021/05/28 06:33:19;;;;;;;4.63;2.60;;;14.30;99.90;;;13.71;85.15;101637.56;4117725;28;20027;-67
2021/05/28 06:35:20;;;;;;;3.15;2.85;;;14.30;99.90;;;13.73;84.79;101635.59;4117826;28;20033;-67
2021/05/28 06:37:21;;;;;;;3.55;2.25;;;14.30;99.90;;;13.78;85.54;101641.28;4117380;28;20031;-67
2021/05/28 06:39:22;;;;;;;4.90;3.17;;;14.30;99.90;;;13.93;84.73;101639.72;4119378;28;20018;-68
2021/05/28 06:41:23;;;;;;;7.45;3.58;;;14.50;99.90;;;14.00;84.34;101629.31;4119511;28;20030;-68
2021/05/28 06:43:24;;;;;;;4.07;2.78;;;14.60;99.90;;;13.91;84.03;101636.41;4112140;28;20439;-68
2021/05/28 06:45:25;;;;;;;3.60;2.42;;;14.70;99.90;;;14.03;84.58;101643.13;4119205;28;20034;-68
2021/05/28 06:47:26;;;;;;;3.78;2.47;;;14.70;99.90;;;14.07;84.41;101628.53;4118769;28;20039;-68
2021/05/28 06:49:27;;;;;;;5.85;3.42;;;14.90;99.90;;;14.17;84.02;101629.25;4119703;28;20045;-68
2021/05/28 06:51:28;;;;;;;3.72;2.42;;;14.90;99.90;;;14.28;84.14;101628.13;4134611;28;20026;-68
2021/05/28 06:53:30;;;;;;;3.97;3.25;;;15.00;99.90;;;14.31;83.16;101628.66;4119941;28;20384;-68
2021/05/28 06:55:31;;;;;;;3.50;3.20;;;15.10;99.90;;;14.25;82.99;101631.09;4120119;28;20106;-68
2021/05/28 06:57:32;;;;;;;6.45;3.28;;;15.20;99.90;;;14.33;82.86;101610.81;4119791;28;20501;-68
2021/05/28 06:59:33;;;;;;;6.18;3.55;;;15.30;99.90;;;14.53;83.23;101608.72;4119855;28;20113;-68
2021/05/28 07:01:34;;;;;;;5.15;3.15;;;15.40;99.90;;;14.64;82.87;101620.84;4119771;28;20026;-69
2021/05/28 07:03:36;;;;;;;3.65;2.65;;;15.50;99.90;;;14.64;82.70;101605.75;4118160;28;20083;-68
2021/05/28 07:05:37;;;;;;;4.50;2.75;;;15.50;99.90;;;14.66;83.34;101597.66;4118594;28;20035;-68
2021/05/28 07:07:38;;;;;;;3.88;2.53;;;15.50;99.90;;;14.79;83.98;101609.47;4119775;28;20034;-69
2021/05/28 07:09:39;;;;;;;3.00;2.08;;;15.50;99.90;;;14.76;84.70;101609.78;4110676;28;20557;-68
2021/05/28 07:11:40;;;;;;;245.48;221.52;;;15.40;99.90;;;14.73;84.11;101610.09;4117914;28;20030;-68
2021/05/28 07:13:41;;;;;;;5.30;3.63;;;15.50;99.90;;;14.80;82.59;101605.81;4119103;28;20031;-68
2021/05/28 07:15:42;;;;;;;4.68;2.88;;;15.50;99.90;;;14.78;81.33;101606.97;4119694;28;20031;-68
2021/05/28 07:17:43;;;;;;;4.50;3.08;;;15.50;99.90;;;14.90;80.60;101611.00;4119769;28;20103;-68
2021/05/28 07:19:44;;;;;;;7.82;2.72;;;15.60;99.90;;;14.89;82.06;101617.28;4119762;28;20526;-68
2021/05/28 07:21:45;;;;;;;5.25;2.85;;;15.60;99.90;;;14.90;80.25;101611.81;4119427;28;20023;-68
2021/05/28 07:23:46;;;;;;;3.88;2.33;;;15.60;99.90;;;14.82;82.14;101617.09;4119534;28;20067;-68
2021/05/28 07:25:47;;;;;;;3.28;2.10;;;15.60;99.90;;;14.88;82.44;101620.94;4119668;28;20442;-68
2021/05/28 07:27:48;;;;;;;5.32;2.33;;;15.50;99.90;;;14.69;80.81;101615.91;4119246;28;20030;-68
2021/05/28 07:29:49;;;;;;;4.07;2.80;;;15.50;99.90;;;14.69;80.46;101607.94;4119719;28;20058;-68
2021/05/28 07:31:50;;;;;;;7.60;2.40;;;15.40;99.90;;;14.83;80.84;101599.34;4119065;28;20034;-68
2021/05/28 07:33:51;;;;;;;7.13;2.35;;;15.50;99.90;;;14.84;80.00;101612.44;4119472;28;20487;-68
2021/05/28 07:35:53;;;;;;;8.52;2.58;;;15.70;99.90;;;15.05;80.84;101609.38;4119519;28;20031;-68
2021/05/28 07:37:54;;;;;;;6.43;2.35;;;15.70;99.90;;;15.18;78.86;101604.38;4119647;28;20103;-68
2021/05/28 07:39:55;;;;;;;4.47;2.20;;;15.80;99.90;;;15.22;79.17;101611.03;4119528;28;20026;-68
2021/05/28 07:41:56;;;;;;;4.68;3.17;;;16.00;99.90;;;15.31;78.17;101596.75;4118960;28;20513;-68
2021/05/28 07:43:57;;;;;;;4.28;2.60;;;16.00;99.90;;;15.41;77.57;101608.03;4119279;28;20497;-68
2021/05/28 07:45:58;;;;;;;2.78;1.83;;;16.10;99.90;;;15.55;78.12;101617.22;4119024;28;20089;-68
2021/05/28 07:48:00;;;;;;;4.50;2.55;;;16.20;99.90;;;15.52;78.98;101595.44;4119362;28;20033;-68
2021/05/28 07:50:04;;;;;;;4.55;2.40;;;16.20;99.90;;;15.65;78.03;101615.19;4119396;28;20027;-68
2021/05/28 07:52:06;;;;;;;3.60;2.05;;;16.30;99.90;;;15.49;79.52;101596.63;4119190;28;20039;-68
2021/05/28 07:54:08;;;;;;;6.07;2.10;;;16.40;99.90;;;15.76;78.44;101622.03;4119183;28;20031;-68
2021/05/28 07:56:09;;;;;;;4.63;2.30;;;16.40;99.90;;;15.75;78.78;101628.34;4119381;28;20454;-68
2021/05/28 07:58:11;;;;;;;3.70;2.08;;;16.40;99.90;;;15.70;79.79;101641.31;4118935;28;20035;-68
2021/05/28 08:00:12;;;;;;;3.22;1.92;;;16.40;99.90;;;15.83;77.74;101631.81;4118825;28;20086;-68
2021/05/28 08:02:15;;;;;;;3.83;2.35;;;16.50;99.90;;;15.99;77.40;101629.13;4119291;28;20023;-68
2021/05/28 08:04:16;;;;;;;3.42;2.33;;;16.60;99.90;;;15.96;76.76;101634.78;4119176;28;20049;-68
2021/05/28 08:06:17;;;;;;;2.88;2.25;;;16.80;99.90;;;16.04;77.01;101628.63;4119352;28;20027;-68
2021/05/28 08:08:19;;;;;;;5.32;2.40;;;16.80;99.90;;;16.09;76.76;101626.28;4118957;28;20051;-68
2021/05/28 08:10:23;;;;;;;2.38;2.15;;;16.80;99.90;;;15.97;74.34;101623.16;4118868;28;20051;-68
2021/05/28 08:12:23;;;;;;;3.70;2.10;;;16.80;99.90;;;16.27;76.07;101632.22;4118908;28;20030;-68
2021/05/28 08:14:24;;;;;;;3.90;2.25;;;16.90;99.90;;;16.54;76.34;101629.16;4117572;28;20036;-68
2021/05/28 08:16:26;;;;;;;5.32;2.40;;;17.10;99.90;;;16.73;75.89;101625.22;4114100;28;20035;-68
2021/05/28 08:18:27;;;;;;;3.97;2.75;;;17.30;99.90;;;16.69;73.21;101623.09;4121876;28;20033;-67
2021/05/28 08:20:28;;;;;;;4.93;2.47;;;17.40;99.90;;;16.84;72.61;101626.69;4121483;28;20031;-67
2021/05/28 08:22:29;;;;;;;2.38;2.00;;;17.50;99.90;;;16.88;72.12;101623.47;4121646;28;20388;-67
2021/05/28 08:24:30;;;;;;;2.85;2.20;;;17.70;99.90;;;16.99;71.67;101627.59;4118899;28;20030;-66
2021/05/28 08:26:31;;;;;;;3.88;1.65;;;17.80;99.90;;;17.17;69.42;101624.66;4121374;28;20023;-67